Time;durP1;ratioP1;P1;durP2;ratioP2;P2;SDS_P1;SDS_P2;PMS_P1;PMS_P2;Temp;Humidity;BMP_temperature;BMP_pressure;BME280_temperature;BME280_humidity;BME280_pressure;Samples;Min_cycle;Max_cycle;Signal;HPM_P1;HPM_P2
2021/03/04 00:00:42;;;;;;;12.90;6.20;;;;;;;0.39;72.70;94054.56;5016908;28;20068;-94
2021/03/04 00:03:09;;;;;;;17.13;5.78;;;;;;;0.45;72.25;94043.94;5016651;28;20050;-93
2021/03/04 00:05:36;;;;;;;20.08;7.30;;;;;;;0.73;72.55;94093.94;5015086;28;20050;-94
2021/03/04 00:08:03;;;;;;;18.48;9.52;;;;;;;0.58;72.20;94083.38;5000597;28;20051;-94
2021/03/04 00:10:29;;;;;;;22.35;9.90;;;;;;;0.52;71.60;94092.28;4997054;28;20054;-93
2021/03/04 00:12:57;;;;;;;9.13;5.18;;;;;;;0.03;72.69;94032.16;4999813;28;20057;-95
2021/03/04 00:15:26;;;;;;;14.80;7.57;;;;;;;0.04;73.31;94025.41;5000500;28;20452;-94
2021/03/04 00:17:53;;;;;;;7.60;5.20;;;;;;;-0.13;72.46;94014.94;5000069;28;20069;-93
2021/03/04 00:20:22;;;;;;;11.00;5.43;;;;;;;-0.37;73.30;93985.66;5006497;28;20065;-96
2021/03/04 00:22:49;;;;;;;8.05;4.68;;;;;;;0.10;72.88;94067.84;5006211;28;20054;-95
2021/03/04 00:25:16;;;;;;;8.02;5.00;;;;;;;-0.07;73.83;94043.94;5003589;28;20067;-95
2021/03/04 00:27:43;;;;;;;13.38;6.13;;;;;;;-0.18;74.18;94032.19;5004674;28;20077;-94
2021/03/04 00:30:13;;;;;;;9.13;5.63;;;;;;;-0.27;73.95;94016.03;5003113;28;20046;-94
2021/03/04 00:32:39;;;;;;;9.77;4.22;;;;;;;-0.14;73.88;94038.56;5003488;28;20477;-93
2021/03/04 00:35:08;;;;;;;10.73;5.07;;;;;;;-0.16;73.90;94040.41;5003315;28;20053;-94
2021/03/04 00:37:35;;;;;;;5.75;3.13;;;;;;;-0.39;73.41;94002.66;5003735;28;20058;-94
2021/03/04 00:40:04;;;;;;;7.78;3.85;;;;;;;-0.06;73.04;94061.50;5014016;28;20476;-92
2021/03/04 00:42:31;;;;;;;9.90;5.32;;;;;;;-0.05;73.44;94069.88;5020980;28;20386;-95
2021/03/04 00:44:58;;;;;;;31.67;12.02;;;;;;;-0.27;73.73;94031.19;5023230;28;20053;-95
2021/03/04 00:47:24;;;;;;;25.42;9.70;;;;;;;-0.56;74.43;93987.16;5022214;28;20056;-95
2021/03/04 00:49:50;;;;;;;;;;;;;;;-0.14;75.28;94054.53;5022725;28;20157;-95
2021/03/04 00:52:18;;;;;;;4.70;2.92;;;;;;;-0.22;75.75;94051.81;5023294;28;20384;-94
2021/03/04 00:54:45;;;;;;;9.65;3.70;;;;;;;-0.45;76.61;94018.31;5021896;28;20049;-94
2021/03/04 00:57:11;;;;;;;;;;;;;;;-0.32;77.14;94048.44;5021578;28;20046;-93
2021/03/04 00:59:37;;;;;;;5.03;3.58;;;;;;;-0.83;76.83;93970.75;5021778;28;20331;-95
2021/03/04 01:02:04;;;;;;;5.40;3.05;;;;;;;-0.58;76.93;94008.38;5022909;28;20068;-94
2021/03/04 01:04:31;;;;;;;6.13;3.28;;;;;;;-0.30;76.84;94042.34;5024092;28;20046;-94
2021/03/04 01:06:58;;;;;;;11.30;4.50;;;;;;;-0.79;76.22;93965.47;5022714;28;20046;-93
2021/03/04 01:09:26;;;;;;;4.65;2.78;;;;;;;-0.90;76.38;93946.13;5022678;28;20052;-94
2021/03/04 01:11:52;;;;;;;5.32;3.85;;;;;;;-0.48;76.33;94003.38;5022500;28;20060;-94
2021/03/04 01:14:19;;;;;;;7.40;4.50;;;;;;;-0.49;77.30;94015.22;5021894;28;20499;-94
2021/03/04 01:16:45;;;;;;;8.98;3.90;;;;;;;-0.66;76.94;93973.66;5023031;28;20461;-94
2021/03/04 01:19:14;;;;;;;9.88;3.35;;;;;;;-0.98;77.08;93927.34;5023570;28;20529;-95
2021/03/04 01:21:40;;;;;;;10.48;4.45;;;;;;;-0.86;76.85;93948.28;5023572;28;20053;-95
2021/03/04 01:24:12;;;;;;;10.48;4.90;;;;;;;-1.22;75.99;93883.00;5023473;28;20049;-95
2021/03/04 01:26:40;;;;;;;9.25;4.07;;;;;;;-1.39;76.12;93856.56;5026965;28;20580;-95
2021/03/04 01:29:28;;;;;;;6.53;3.72;;;;;;;-0.81;75.86;93952.97;5024579;28;20052;-96
2021/03/04 01:31:55;;;;;;;6.95;3.17;;;;;;;-1.24;76.02;93899.94;5020777;28;20064;-96
2021/03/04 03:15:27;;;;;;;8.63;4.30;;;;;;;-2.03;79.67;93865.66;4984735;28;20037;-96
2021/03/04 03:25:41;;;;;;;7.57;3.92;;;;;;;-2.55;80.23;93810.78;5694591;22;20041;-96
2021/03/04 03:28:14;;;;;;;11.23;5.40;;;;;;;-2.43;79.96;93812.41;5053893;28;20041;-96
2021/03/04 03:46:41;;;;;;;6.75;3.30;;;;;;;-2.66;80.29;93801.53;5484935;22;20057;-95
2021/03/04 03:49:16;;;;;;;3.63;2.70;;;;;;;-2.61;81.12;93811.25;5051353;28;20046;-96
2021/03/04 03:51:44;;;;;;;9.43;3.65;;;;;;;-2.62;81.39;93804.63;5030596;28;20072;-96
2021/03/04 03:54:14;;;;;;;6.72;3.33;;;;;;;-2.44;80.92;93818.31;5047275;28;20050;-95
2021/03/04 03:56:41;;;;;;;5.28;2.75;;;;;;;-2.26;80.71;93848.06;5048731;28;20109;-96
2021/03/04 03:59:10;;;;;;;4.43;3.10;;;;;;;-1.99;80.69;93893.94;5047319;28;20060;-95
2021/03/04 04:01:39;;;;;;;7.00;3.50;;;;;;;-1.91;80.83;93911.75;5044285;28;20053;-96
2021/03/04 04:04:15;;;;;;;5.88;3.47;;;;;;;-2.26;80.17;93855.63;5044863;28;20058;-96
2021/03/04 04:06:43;;;;;;;6.85;3.63;;;;;;;-2.30;80.41;93841.66;5045530;28;20057;-96
2021/03/04 04:09:11;;;;;;;7.93;4.15;;;;;;;-2.53;80.18;93803.13;5047005;28;20056;-95
2021/03/04 04:11:41;;;;;;;6.53;3.83;;;;;;;-2.64;80.19;93796.38;5051925;28;20048;-96
2021/03/04 04:14:08;;;;;;;6.65;3.75;;;;;;;-2.65;80.43;93803.13;5047877;28;20561;-96
2021/03/04 04:16:35;;;;;;;13.57;4.25;;;;;;;-2.76;79.98;93778.78;5044313;28;20052;-96
2021/03/04 04:21:47;;;;;;;9.48;5.05;;;;;;;-1.78;80.83;93940.16;5053087;28;20079;-95
2021/03/04 04:24:15;;;;;;;8.52;4.68;;;;;;;-2.70;80.64;93793.41;5049617;28;20050;-96
2021/03/04 04:27:05;;;;;;;13.18;5.45;;;;;;;-2.82;80.43;93772.50;5052205;28;20033;-96
2021/03/04 05:22:42;;;;;;;7.45;5.13;;;;;;;-2.25;82.16;93874.84;5066000;28;20049;-96
2021/03/04 05:25:36;;;;;;;14.40;6.57;;;;;;;-2.81;82.25;93805.97;5077280;28;20052;-96
2021/03/04 05:31:23;;;;;;;16.15;5.72;;;;;;;-3.40;82.89;93720.59;5500193;22;20039;-96
2021/03/04 05:33:51;;;;;;;8.43;4.65;;;;;;;-3.26;82.72;93739.66;5116928;28;20063;-96
2021/03/04 05:36:18;;;;;;;17.42;7.05;;;;;;;-2.63;83.33;93833.19;5110822;28;20048;-96
2021/03/04 05:41:34;;;;;;;9.93;4.70;;;;;;;-3.23;83.50;93716.03;5110722;28;20066;-96
2021/03/04 05:46:48;;;;;;;11.38;5.07;;;;;;;-2.18;82.90;93830.66;5108359;28;20451;-96
2021/03/04 05:49:18;;;;;;;16.38;8.32;;;;;;;-2.69;82.83;93752.25;5111793;28;20055;-96
2021/03/04 05:51:55;;;;;;;12.75;8.50;;;;;;;-1.83;82.82;93848.22;5111425;28;20052;-96
2021/03/04 05:54:27;;;;;;;15.38;9.00;;;;;;;-2.37;82.51;93745.69;5116109;28;20225;-96
2021/03/04 05:56:56;;;;;;;25.48;14.38;;;;;;;-1.79;82.69;93811.81;5114469;28;20048;-96
2021/03/04 05:59:27;;;;;;;21.38;11.80;;;;;;;-2.18;82.96;93749.34;5116132;28;20052;-96
2021/03/04 06:02:16;;;;;;;18.65;10.88;;;;;;;-2.00;83.02;93743.78;5113185;28;20052;-96
2021/03/04 06:04:49;;;;;;;23.10;11.43;;;;;;;-1.59;82.61;93781.78;5118473;28;20050;-96
2021/03/04 06:13:31;;;;;;;16.58;8.50;;;;;;;-1.35;81.83;93738.69;5089189;28;20051;-96
2021/03/04 06:28:53;;;;;;;19.13;8.40;;;;;;;0.76;74.67;93823.91;5082647;28;20297;-96
2021/03/04 06:31:21;;;;;;;23.27;7.95;;;;;;;1.04;74.04;93831.59;5084499;28;20048;-96
2021/03/04 06:33:47;;;;;;;18.42;7.95;;;;;;;1.13;73.76;93821.59;5081773;28;20051;-95
2021/03/04 06:36:15;;;;;;;19.45;10.18;;;;;;;1.12;73.61;93808.16;5081719;28;20056;-96
2021/03/04 06:38:42;;;;;;;13.52;6.80;;;;;;;1.64;72.39;93866.88;5081988;28;20055;-96
2021/03/04 06:41:20;;;;;;;15.20;8.18;;;;;;;1.14;73.66;93815.59;5082297;28;20052;-96
2021/03/04 06:43:46;;;;;;;31.15;9.82;;;;;;;1.11;74.08;93808.28;5081611;28;20080;-95
2021/03/04 06:46:14;;;;;;;23.08;7.38;;;;;;;1.37;73.15;93782.34;5082204;28;20049;-96
2021/03/04 06:48:51;;;;;;;15.35;8.57;;;;;;;1.69;71.50;93817.44;5081670;28;20052;-96
2021/03/04 06:51:18;;;;;;;20.17;8.57;;;;;;;1.85;71.70;93818.56;5081449;28;20075;-96
2021/03/04 06:53:51;;;;;;;20.95;10.93;;;;;;;1.66;71.94;93758.66;5082733;28;20396;-96
2021/03/04 06:56:28;;;;;;;17.75;8.80;;;;;;;2.56;70.38;93850.97;5084215;28;20075;-96
2021/03/04 06:58:59;;;;;;;22.65;12.30;;;;;;;2.38;68.65;93814.53;5081525;28;20091;-96
2021/03/04 07:01:29;;;;;;;21.75;10.45;;;;;;;2.75;69.48;93853.38;5080385;28;20057;-96
2021/03/04 07:03:58;;;;;;;28.08;9.95;;;;;;;1.89;68.67;93715.22;5084283;28;20049;-96
2021/03/04 07:06:26;;;;;;;17.70;8.60;;;;;;;2.61;69.47;93816.63;5083880;28;20048;-96
2021/03/04 07:08:54;;;;;;;19.58;8.50;;;;;;;2.44;68.25;93782.72;5082368;28;20056;-96
2021/03/04 07:11:22;;;;;;;20.83;9.32;;;;;;;2.56;68.78;93777.41;5082993;28;20394;-96
2021/03/04 07:13:49;;;;;;;15.10;7.22;;;;;;;3.09;68.85;93844.25;5081320;28;20071;-95
2021/03/04 07:16:37;;;;;;;16.08;9.40;;;;;;;2.76;69.11;93786.47;5081145;28;20042;-96
2021/03/04 07:19:05;;;;;;;21.13;9.00;;;;;;;2.73;70.56;93752.97;5081477;28;20054;-96
2021/03/04 07:21:38;;;;;;;33.00;11.57;;;;;;;3.14;69.32;93788.00;5082849;28;20081;-96
2021/03/04 07:24:06;;;;;;;28.95;9.18;;;;;;;2.76;68.03;93707.00;5082446;28;20045;-96
2021/03/04 07:26:34;;;;;;;25.98;9.32;;;;;;;2.72;67.75;93690.53;5081326;28;20055;-96
2021/03/04 07:29:05;;;;;;;23.60;9.73;;;;;;;3.24;69.19;93732.03;5083217;28;20048;-96
2021/03/04 07:31:33;;;;;;;19.83;11.82;;;;;;;3.90;67.99;93793.28;5081855;28;20101;-96
2021/03/04 07:34:01;;;;;;;18.58;9.30;;;;;;;3.98;66.32;93774.72;5082455;28;20047;-96
2021/03/04 07:36:28;;;;;;;23.88;12.02;;;;;;;4.38;65.62;93798.63;5080576;28;20049;-95
2021/03/04 07:38:56;;;;;;;29.17;10.25;;;;;;;4.65;63.91;93806.94;5080562;28;20398;-95
2021/03/04 07:41:23;;;;;;;26.85;12.52;;;;;;;4.60;63.10;93768.44;5080125;28;20048;-95
2021/03/04 07:43:52;;;;;;;33.72;15.55;;;;;;;4.20;64.51;93670.78;5081295;28;20055;-96
2021/03/04 07:46:29;;;;;;;33.95;14.35;;;;;;;5.05;63.96;93747.72;5081572;28;20052;-96
2021/03/04 07:48:58;;;;;;;28.95;11.27;;;;;;;5.17;61.68;93730.34;5079609;28;20052;-96
2021/03/04 07:51:25;;;;;;;28.08;13.43;;;;;;;5.47;60.90;93736.47;5080168;28;20048;-96
2021/03/04 07:53:54;;;;;;;27.83;12.35;;;;;;;5.29;60.90;93670.47;5083710;28;20053;-96
2021/03/04 07:56:25;;;;;;;23.52;11.90;;;;;;;6.00;59.04;93710.41;5079760;28;20052;-96
2021/03/04 07:58:52;;;;;;;30.77;12.43;;;;;;;6.68;60.51;93755.72;5079502;28;20049;-95
2021/03/04 08:01:18;;;;;;;32.38;14.52;;;;;;;7.27;58.74;93761.13;5077533;28;20055;-96
2021/03/04 08:03:45;;;;;;;;;;;;;;;7.60;56.68;93765.91;5078764;28;20052;-95
2021/03/04 08:06:13;;;;;;;24.02;12.77;;;;;;;7.96;55.94;93740.56;5079236;28;19943;-96
2021/03/04 08:08:40;;;;;;;31.25;13.20;;;;;;;8.20;54.60;93741.19;5078997;28;20392;-96
2021/03/04 08:11:07;;;;;;;34.30;15.40;;;;;;;8.38;53.77;93722.88;5078618;28;20047;-96
2021/03/04 08:13:34;;;;;;;27.92;14.35;;;;;;;8.71;53.10;93709.59;5078445;28;20067;-95
2021/03/04 08:16:01;;;;;;;27.85;13.60;;;;;;;9.42;51.37;93746.31;5078907;28;20411;-96
2021/03/04 08:18:27;;;;;;;26.73;11.80;;;;;;;9.40;51.82;93724.41;5077358;28;20067;-96
2021/03/04 08:21:03;;;;;;;44.35;15.90;;;;;;;9.99;51.62;93724.84;5076283;28;20070;-95
2021/03/04 08:23:30;;;;;;;29.87;11.20;;;;;;;10.27;47.57;93727.28;5076903;28;20052;-96
2021/03/04 08:25:59;;;;;;;63.53;19.50;;;;;;;10.51;47.42;93688.44;5077187;28;20505;-95
2021/03/04 08:28:27;;;;;;;73.68;21.70;;;;;;;10.89;44.84;93662.13;5077515;28;20745;-95
2021/03/04 08:30:54;;;;;;;27.70;10.90;;;;;;;11.23;42.85;93682.63;5077957;28;20044;-95
2021/03/04 08:33:20;;;;;;;33.42;14.75;;;;;;;11.60;41.71;93688.06;5077176;28;20074;-95
2021/03/04 08:35:48;;;;;;;6.18;3.42;;;;;;;11.50;41.09;93649.13;5077881;28;20044;-95
2021/03/04 08:38:16;;;;;;;6.97;3.58;;;;;;;12.05;39.76;93668.50;5078432;28;20044;-96
2021/03/04 08:40:46;;;;;;;35.13;10.70;;;;;;;12.40;38.57;93662.09;5077842;28;20048;-96
2021/03/04 08:43:13;;;;;;;9.65;4.40;;;;;;;12.76;37.95;93701.88;5080555;28;20071;-95
2021/03/04 08:45:40;;;;;;;20.95;7.40;;;;;;;12.81;37.13;93654.84;5079615;28;20048;-96
2021/03/04 08:48:09;;;;;;;73.93;21.98;;;;;;;13.29;37.08;93673.25;5081283;28;20040;-96
2021/03/04 08:50:38;;;;;;;34.63;12.20;;;;;;;13.19;36.87;93676.34;5081317;28;20048;-94
2021/03/04 08:53:12;;;;;;;15.15;6.45;;;;;;;13.11;36.03;93649.03;5080295;28;20079;-94
2021/03/04 08:55:47;;;;;;;23.65;7.40;;;;;;;12.86;35.81;93575.06;5081267;28;20125;-96
2021/03/04 08:58:16;;;;;;;22.75;8.02;;;;;;;13.61;34.99;93658.41;5083019;28;20048;-96
2021/03/04 09:00:50;;;;;;;53.03;12.77;;;;;;;13.38;35.23;93637.63;5082930;28;20491;-96
2021/03/04 09:03:17;;;;;;;22.52;8.55;;;;;;;13.23;34.94;93612.97;5083258;28;20483;-95
2021/03/04 09:05:44;;;;;;;70.68;15.48;;;;;;;13.30;34.51;93574.22;5079880;28;20106;-96
2021/03/04 09:08:15;;;;;;;18.75;6.43;;;;;;;13.59;34.00;93608.00;5079679;28;20048;-94
2021/03/04 09:10:43;;;;;;;19.33;6.75;;;;;;;13.68;34.40;93636.91;5078464;28;20107;-96
2021/03/04 09:13:11;;;;;;;11.60;4.88;;;;;;;13.73;34.44;93626.69;5079425;28;20064;-96
2021/03/04 09:15:42;;;;;;;8.90;3.47;;;;;;;14.08;33.70;93664.00;5079217;28;20101;-95
2021/03/04 09:18:10;;;;;;;9.30;3.30;;;;;;;14.05;34.48;93659.25;5078450;28;20052;-94
2021/03/04 09:20:37;;;;;;;5.07;2.80;;;;;;;14.17;34.02;93644.59;5077715;28;20439;-95
2021/03/04 09:23:05;;;;;;;15.50;5.18;;;;;;;14.48;34.08;93660.84;5078591;28;20060;-93
2021/03/04 09:25:32;;;;;;;33.92;11.13;;;;;;;14.62;32.61;93617.47;5077843;28;20118;-96
2021/03/04 09:27:58;;;;;;;11.35;4.88;;;;;;;14.99;32.46;93652.69;5078209;28;20056;-96
2021/03/04 09:30:28;;;;;;;10.52;4.38;;;;;;;14.88;32.47;93630.19;5078981;28;20052;-96
2021/03/04 09:32:56;;;;;;;9.30;3.35;;;;;;;14.69;32.14;93618.13;5079678;28;20048;-96
2021/03/04 09:35:22;;;;;;;8.15;2.28;;;;;;;14.94;31.64;93616.34;5078040;28;20102;-94
2021/03/04 09:37:49;;;;;;;6.93;2.33;;;;;;;15.00;31.80;93640.53;5079478;28;20044;-96
2021/03/04 09:40:28;;;;;;;6.50;2.80;;;;;;;14.89;31.15;93609.28;5078576;28;20055;-95
2021/03/04 09:42:55;;;;;;;8.52;2.65;;;;;;;15.28;31.45;93629.47;5079324;28;20056;-95
2021/03/04 09:45:21;;;;;;;6.85;2.55;;;;;;;14.80;30.47;93548.56;5080055;28;20044;-95
2021/03/04 09:47:50;;;;;;;4.88;2.25;;;;;;;15.15;31.11;93571.00;5080573;28;20052;-96
2021/03/04 09:50:21;;;;;;;15.02;6.65;;;;;;;15.46;29.60;93594.88;5081185;28;20048;-95
2021/03/04 09:52:58;;;;;;;28.08;10.93;;;;;;;15.55;29.59;93566.03;5077582;28;20106;-94
2021/03/04 09:55:25;;;;;;;12.75;5.13;;;;;;;15.90;29.82;93585.81;5077312;28;20059;-96
2021/03/04 09:57:51;;;;;;;14.32;7.30;;;;;;;15.81;28.83;93550.94;5077778;28;20105;-94
2021/03/04 10:00:23;;;;;;;6.75;3.40;;;;;;;15.88;27.79;93561.94;5078053;28;20052;-94
2021/03/04 10:02:52;;;;;;;5.82;2.80;;;;;;;16.19;29.28;93598.75;5075941;28;20044;-95
2021/03/04 10:05:21;;;;;;;6.35;1.98;;;;;;;16.29;29.50;93598.91;5075514;28;20144;-94
2021/03/04 10:07:48;;;;;;;5.95;2.28;;;;;;;16.17;29.30;93590.44;5075283;28;20044;-93
2021/03/04 10:10:19;;;;;;;5.45;2.58;;;;;;;16.26;28.94;93570.84;5075219;28;20048;-94
2021/03/04 10:12:53;;;;;;;5.30;2.70;;;;;;;16.63;27.89;93579.97;5074939;28;20083;-93
2021/03/04 10:15:38;;;;;;;7.00;3.60;;;;;;;16.92;28.46;93561.66;5074445;28;20102;-93
2021/03/04 10:18:09;;;;;;;3.25;1.70;;;;;;;16.74;26.94;93534.19;5075157;28;20087;-96
2021/03/04 10:20:36;;;;;;;2.78;1.90;;;;;;;16.59;28.09;93527.00;5075990;28;20048;-95
2021/03/04 10:23:03;;;;;;;4.25;1.63;;;;;;;16.91;26.50;93560.09;5075154;28;20079;-95
2021/03/04 10:25:30;;;;;;;6.75;1.92;;;;;;;16.68;27.41;93511.81;5076129;28;20504;-95
2021/03/04 10:27:59;;;;;;;3.75;1.98;;;;;;;16.88;26.89;93550.19;5074594;28;20110;-95
2021/03/04 10:30:26;;;;;;;7.40;1.70;;;;;;;16.92;27.53;93547.91;5061864;28;20454;-94
2021/03/04 10:32:52;;;;;;;3.55;1.88;;;;;;;16.88;27.10;93524.25;5060898;28;20048;-94
2021/03/04 10:35:20;;;;;;;3.42;1.98;;;;;;;16.80;26.70;93527.28;5066113;28;20533;-94
2021/03/04 10:37:47;;;;;;;5.47;1.90;;;;;;;16.32;26.49;93475.03;5067605;28;20416;-94
2021/03/04 10:40:15;;;;;;;4.07;1.77;;;;;;;16.68;26.95;93529.97;5063840;28;20392;-94
2021/03/04 10:42:42;;;;;;;8.90;3.30;;;;;;;16.49;27.08;93493.16;5064514;28;20045;-96
2021/03/04 10:45:10;;;;;;;4.72;2.35;;;;;;;16.50;27.57;93466.19;5064973;28;20036;-94
2021/03/04 10:47:38;;;;;;;7.55;2.05;;;;;;;16.45;27.39;93503.22;5074965;28;20052;-94
2021/03/04 10:50:05;;;;;;;5.05;1.60;;;;;;;16.54;26.87;93512.13;5069001;28;20635;-94
2021/03/04 10:52:33;;;;;;;4.88;1.80;;;;;;;16.75;27.08;93485.72;5067228;28;20095;-93
2021/03/04 10:55:00;;;;;;;6.32;2.30;;;;;;;16.98;26.29;93476.88;5064203;28;20048;-94
2021/03/04 10:57:26;;;;;;;4.03;1.70;;;;;;;17.17;26.06;93497.38;5067601;28;20067;-93
2021/03/04 10:59:52;;;;;;;4.43;1.77;;;;;;;17.42;25.81;93486.44;5064855;28;20404;-95
2021/03/04 11:02:19;;;;;;;4.40;1.80;;;;;;;17.39;25.95;93473.94;5065457;28;20453;-95
2021/03/04 11:04:46;;;;;;;5.20;2.25;;;;;;;17.70;24.97;93484.63;5064229;28;20044;-94
2021/03/04 11:07:15;;;;;;;5.85;1.83;;;;;;;17.33;26.06;93447.16;5070204;28;20094;-95
2021/03/04 11:09:42;;;;;;;5.93;2.88;;;;;;;17.70;25.73;93469.03;5063842;28;20449;-94
2021/03/04 11:12:09;;;;;;;6.07;2.50;;;;;;;17.49;25.03;93414.31;5074065;28;20426;-94
2021/03/04 11:14:36;;;;;;;3.65;1.65;;;;;;;17.57;25.25;93415.69;5074184;28;20051;-96
2021/03/04 11:17:03;;;;;;;2.92;1.65;;;;;;;17.67;25.40;93425.34;5073837;28;20044;-94
2021/03/04 11:19:31;;;;;;;4.50;1.98;;;;;;;17.93;24.96;93428.16;5073257;28;20137;-94
2021/03/04 11:21:57;;;;;;;4.55;1.80;;;;;;;18.34;25.26;93443.25;5056358;28;20048;-96
2021/03/04 11:24:23;;;;;;;5.53;1.67;;;;;;;18.05;22.55;93416.78;5054190;28;20053;-94
2021/03/04 11:26:50;;;;;;;5.28;2.08;;;;;;;18.34;24.42;93404.22;5054094;28;20057;-95
2021/03/04 11:29:17;;;;;;;2.42;1.58;;;;;;;18.81;23.72;93427.81;5053766;28;20045;-95
2021/03/04 11:31:43;;;;;;;;;;;;;;;18.78;22.77;93421.31;5054011;28;20041;-93
2021/03/04 11:34:09;;;;;;;13.05;2.17;;;;;;;18.95;22.37;93417.69;5072462;28;19927;-93
2021/03/04 11:36:35;;;;;;;5.95;1.38;;;;;;;18.88;23.07;93409.38;5073288;28;20048;-94
2021/03/04 11:39:03;;;;;;;3.45;1.85;;;;;;;18.77;24.08;93365.09;5072730;28;20044;-93
2021/03/04 11:41:29;;;;;;;8.18;2.10;;;;;;;18.90;23.74;93405.47;5074139;28;20387;-93
2021/03/04 11:43:56;;;;;;;5.00;2.70;;;;;;;19.02;22.86;93388.84;5073309;28;20508;-94
2021/03/04 11:46:24;;;;;;;4.97;2.10;;;;;;;18.82;22.67;93349.50;5073330;28;20109;-93
2021/03/04 11:48:52;;;;;;;5.65;1.80;;;;;;;18.89;23.28;93344.03;5073339;28;20060;-93
2021/03/04 11:51:18;;;;;;;4.90;1.75;;;;;;;19.04;22.18;93371.16;5072612;28;20102;-94
2021/03/04 11:53:45;;;;;;;4.85;1.70;;;;;;;18.73;23.12;93345.03;5073182;28;20548;-94
2021/03/04 11:56:11;;;;;;;5.50;2.53;;;;;;;19.01;23.38;93356.00;5072896;28;20040;-92
2021/03/04 11:58:38;;;;;;;5.95;2.55;;;;;;;18.73;24.23;93371.84;5073049;28;20049;-92
2021/03/04 12:01:05;;;;;;;4.70;2.28;;;;;;;18.60;23.66;93360.09;5072428;28;20053;-92
2021/03/04 12:03:32;;;;;;;3.10;1.50;;;;;;;18.75;23.49;93345.56;5072570;28;20040;-93
2021/03/04 12:05:58;;;;;;;6.70;1.92;;;;;;;18.58;22.98;93333.56;5072854;28;20048;-93
2021/03/04 12:08:25;;;;;;;4.40;2.05;;;;;;;18.66;23.40;93312.25;5072499;28;20079;-93
2021/03/04 12:10:51;;;;;;;6.30;2.22;;;;;;;18.63;22.55;93281.53;5073063;28;20053;-93
2021/03/04 12:13:17;;;;;;;7.72;2.25;;;;;;;19.01;22.94;93330.78;5072200;28;20072;-93
2021/03/04 12:15:44;;;;;;;3.97;1.67;;;;;;;18.82;22.40;93307.06;5074091;28;20045;-93
2021/03/04 12:18:11;;;;;;;4.90;1.30;;;;;;;19.03;22.71;93330.53;5077116;28;20056;-93
2021/03/04 12:20:38;;;;;;;2.85;1.42;;;;;;;18.96;22.14;93308.13;5076981;28;20407;-95
2021/03/04 12:23:06;;;;;;;4.25;1.65;;;;;;;18.92;22.28;93306.28;5093762;28;20040;-96
2021/03/04 12:25:34;;;;;;;2.92;1.75;;;;;;;18.91;23.43;93315.13;5097975;28;20047;-94
2021/03/04 12:28:01;;;;;;;3.63;1.25;;;;;;;18.77;23.16;93327.88;5096875;28;20083;-91
2021/03/04 12:30:27;;;;;;;6.30;2.53;;;;;;;18.64;22.70;93308.31;5096809;28;20487;-92
2021/03/04 12:32:54;;;;;;;5.38;2.45;;;;;;;18.70;22.97;93304.69;5095935;28;20059;-90
2021/03/04 12:35:21;;;;;;;;;;;;;;;18.85;23.27;93314.38;5096649;28;20044;-92
2021/03/04 12:37:48;;;;;;;8.48;2.28;;;;;;;18.40;23.30;93307.00;5096533;28;19920;-92
2021/03/04 12:40:16;;;;;;;113.88;26.92;;;;;;;18.42;22.45;93275.50;5084758;28;20048;-92
2021/03/04 12:42:42;;;;;;;30.83;8.32;;;;;;;18.85;20.95;93303.16;5075977;28;20479;-92
2021/03/04 12:45:10;;;;;;;34.75;9.40;;;;;;;19.10;20.32;93305.03;5076438;28;20110;-94
2021/03/04 12:47:36;;;;;;;13.43;4.35;;;;;;;19.02;22.71;93289.91;5076340;28;20044;-93
2021/03/04 12:50:04;;;;;;;24.13;5.85;;;;;;;18.79;21.90;93248.50;5076127;28;20049;-92
2021/03/04 12:52:31;;;;;;;75.57;19.77;;;;;;;19.30;21.87;93282.63;5075788;28;20052;-94
2021/03/04 12:54:57;;;;;;;107.90;24.08;;;;;;;18.85;21.54;93219.88;5075973;28;20055;-93
2021/03/04 12:57:24;;;;;;;210.13;45.88;;;;;;;19.15;22.01;93271.19;5075981;28;20438;-92
2021/03/04 12:59:50;;;;;;;35.15;10.20;;;;;;;19.33;21.83;93284.69;5075989;28;20801;-94
2021/03/04 13:02:17;;;;;;;10.00;2.60;;;;;;;19.33;20.91;93267.25;5076298;28;20053;-93
2021/03/04 13:04:44;;;;;;;17.02;4.57;;;;;;;19.22;20.28;93243.03;5076251;28;20053;-94
2021/03/04 13:07:10;;;;;;;6.68;2.13;;;;;;;19.33;20.28;93256.84;5066977;28;20044;-93
2021/03/04 13:09:40;;;;;;;20.13;4.80;;;;;;;19.28;20.79;93220.41;5060415;28;20053;-94
2021/03/04 13:12:07;;;;;;;38.85;10.80;;;;;;;19.36;20.04;93253.69;5055682;28;20052;-94
2021/03/04 13:14:33;;;;;;;19.92;5.20;;;;;;;19.36;19.91;93271.94;5055862;28;20053;-94
2021/03/04 13:17:00;;;;;;;32.33;9.18;;;;;;;19.57;21.48;93271.13;5055674;28;20084;-94
2021/03/04 13:19:26;;;;;;;7.88;2.88;;;;;;;19.26;21.73;93260.75;5055836;28;20048;-94
2021/03/04 13:21:52;;;;;;;90.07;31.25;;;;;;;19.00;20.93;93265.94;5055683;28;20048;-94
2021/03/04 13:24:19;;;;;;;44.20;16.08;;;;;;;19.01;20.99;93238.88;5055752;28;20064;-95
2021/03/04 13:26:46;;;;;;;11.20;4.57;;;;;;;19.25;21.06;93257.38;5054985;28;20411;-95
2021/03/04 13:29:12;;;;;;;11.48;5.50;;;;;;;19.17;19.77;93224.06;5055650;28;20498;-95
2021/03/04 13:31:39;;;;;;;8.18;3.67;;;;;;;19.48;21.27;93243.00;5055792;28;20118;-95
2021/03/04 13:34:05;;;;;;;9.88;4.40;;;;;;;19.43;21.70;93242.22;5056092;28;20159;-95
2021/03/04 13:36:31;;;;;;;4.85;2.35;;;;;;;19.04;21.17;93194.13;5056132;28;20053;-94
2021/03/04 13:38:58;;;;;;;9.95;5.45;;;;;;;19.37;20.94;93241.47;5055926;28;20135;-94
2021/03/04 13:41:24;;;;;;;4.68;2.78;;;;;;;19.17;20.74;93206.59;5055961;28;20163;-95
2021/03/04 13:43:51;;;;;;;5.45;1.55;;;;;;;18.70;22.66;93195.41;5065733;28;20507;-94
2021/03/04 13:46:18;;;;;;;4.88;1.67;;;;;;;18.72;21.29;93211.56;5075759;28;20044;-94
2021/03/04 13:48:44;;;;;;;3.28;1.77;;;;;;;18.85;22.59;93236.28;5075031;28;20045;-93
2021/03/04 13:51:10;;;;;;;3.60;1.38;;;;;;;19.02;21.53;93228.19;5075161;28;20415;-94
2021/03/04 13:53:36;;;;;;;4.30;1.80;;;;;;;19.17;21.85;93224.06;5075255;28;20537;-94
2021/03/04 13:56:04;;;;;;;4.30;1.63;;;;;;;18.85;22.26;93223.28;5075324;28;20447;-92
2021/03/04 13:58:30;;;;;;;5.63;2.33;;;;;;;18.65;21.87;93185.81;5075238;28;20048;-95
2021/03/04 14:00:57;;;;;;;;;;;;;;;18.85;22.41;93218.06;5075285;28;20048;-95
2021/03/04 14:03:23;;;;;;;3.88;1.50;;;;;;;18.26;22.50;93152.50;5074516;28;19928;-94
2021/03/04 14:05:51;;;;;;;3.85;1.38;;;;;;;18.59;22.07;93205.06;5074054;28;20056;-93
2021/03/04 14:08:17;;;;;;;1.90;1.02;;;;;;;18.32;22.50;93220.91;5074355;28;20048;-93
2021/03/04 14:10:44;;;;;;;2.35;1.52;;;;;;;18.14;22.74;93197.72;5075107;28;20086;-94
2021/03/04 14:13:10;;;;;;;4.13;2.20;;;;;;;17.69;22.52;93147.16;5074173;28;20048;-92
2021/03/04 14:15:36;;;;;;;;;;;;;;;17.93;22.73;93206.47;5075041;28;20049;-93
2021/03/04 14:18:03;;;;;;;3.25;1.83;;;;;;;18.00;23.38;93201.81;5075012;28;19943;-94
2021/03/04 14:20:31;;;;;;;5.30;2.30;;;;;;;17.88;23.06;93178.66;5074792;28;20041;-95
2021/03/04 14:22:58;;;;;;;4.93;2.38;;;;;;;17.95;23.14;93178.41;5074690;28;20052;-94
2021/03/04 14:25:24;;;;;;;5.38;1.98;;;;;;;17.93;21.79;93176.06;5074699;28;20053;-93
2021/03/04 14:27:52;;;;;;;4.68;2.70;;;;;;;17.88;22.68;93168.25;5074037;28;20486;-94
2021/03/04 14:30:18;;;;;;;2.80;1.38;;;;;;;17.91;22.99;93191.13;5073921;28;20084;-95
2021/03/04 14:32:45;;;;;;;3.05;1.70;;;;;;;17.76;22.43;93190.06;5073735;28;20087;-94
2021/03/04 14:35:13;;;;;;;2.22;1.17;;;;;;;17.39;22.95;93127.84;5073857;28;20040;-94
2021/03/04 14:37:39;;;;;;;3.08;1.75;;;;;;;17.58;22.56;93178.28;5074270;28;20080;-92
2021/03/04 14:40:09;;;;;;;4.20;1.63;;;;;;;17.62;22.67;93176.75;5073952;28;20056;-92
2021/03/04 14:42:36;;;;;;;49.10;14.70;;;;;;;17.65;22.82;93177.28;5073569;28;20048;-92
2021/03/04 14:45:03;;;;;;;63.88;17.98;;;;;;;17.68;22.28;93176.78;5074246;28;20049;-93
2021/03/04 14:47:29;;;;;;;24.20;8.20;;;;;;;17.48;22.89;93160.84;5073481;28;20379;-93
2021/03/04 14:49:55;;;;;;;;;;;;;;;17.44;23.28;93172.00;5074391;28;20522;-94
2021/03/04 14:52:22;;;;;;;36.35;11.93;;;;;;;17.29;23.46;93172.69;5073781;28;19928;-94
2021/03/04 14:54:49;;;;;;;18.70;7.32;;;;;;;16.73;23.38;93083.91;5073920;28;20064;-93
2021/03/04 14:57:15;;;;;;;;;;;;;;;17.04;24.19;93166.34;5074047;28;20044;-94
2021/03/04 14:59:41;;;;;;;11.77;4.07;;;;;;;16.46;24.87;93092.56;5073530;28;19920;-93
2021/03/04 15:02:07;;;;;;;12.07;2.95;;;;;;;16.52;24.82;93114.13;5073279;28;20044;-93
2021/03/04 15:04:34;;;;;;;13.32;4.22;;;;;;;16.46;24.52;93115.09;5074066;28;20052;-93